Time;durP1;ratioP1;P1;durP2;ratioP2;P2;SDS_P1;SDS_P2;PMS_P1;PMS_P2;Temp;Humidity;BMP_temperature;BMP_pressure;BME280_temperature;BME280_humidity;BME280_pressure;Samples;Min_cycle;Max_cycle;Signal;HPM_P1;HPM_P2
2023/05/05 00:02:56;;;;;;;9.35;3.80;;;13.00;99.90;;;;;;12505599;28;20068;-36
2023/05/05 00:08:58;;;;;;;7.35;3.42;;;13.00;99.90;;;;;;12499605;28;20482;-37
2023/05/05 00:15:00;;;;;;;7.82;4.28;;;13.10;99.90;;;;;;12483857;28;20065;-37
2023/05/05 00:21:03;;;;;;;6.13;3.83;;;13.00;99.90;;;;;;12498488;28;20487;-37
2023/05/05 00:27:05;;;;;;;7.53;3.85;;;12.80;99.90;;;;;;12494669;28;20288;-37
2023/05/05 00:33:09;;;;;;;6.68;3.28;;;12.90;99.90;;;;;;12486896;28;20037;-37
2023/05/05 00:39:12;;;;;;;9.18;3.67;;;12.80;99.90;;;;;;12470059;28;20044;-37
2023/05/05 00:45:15;;;;;;;6.50;3.75;;;12.90;99.90;;;;;;12498746;28;20045;-37
2023/05/05 00:51:18;;;;;;;7.82;3.78;;;12.60;99.90;;;;;;12483299;28;20135;-37
2023/05/05 00:57:20;;;;;;;6.53;4.10;;;12.70;99.90;;;;;;12492850;28;20136;-37
2023/05/05 01:03:25;;;;;;;10.80;5.72;;;12.60;99.90;;;;;;12470735;28;20392;-37
2023/05/05 01:09:42;;;;;;;9.43;4.40;;;12.60;99.90;;;;;;12479420;28;20064;-37
2023/05/05 01:15:55;;;;;;;7.05;3.63;;;12.40;99.90;;;;;;12452645;28;20061;-37
2023/05/05 01:22:01;;;;;;;7.93;3.40;;;12.20;99.90;;;;;;12469917;28;20408;-37
2023/05/05 01:28:10;;;;;;;9.82;4.00;;;12.20;99.90;;;;;;12479233;28;20135;-37
2023/05/05 01:34:15;;;;;;;9.10;3.58;;;12.10;99.90;;;;;;12489351;28;20050;-37
2023/05/05 01:40:24;;;;;;;5.93;3.35;;;12.10;99.90;;;;;;12494158;28;20053;-37
2023/05/05 01:46:26;;;;;;;8.43;3.58;;;12.10;99.90;;;;;;12481617;28;20102;-37
2023/05/05 01:52:32;;;;;;;6.65;3.10;;;12.00;99.90;;;;;;12474472;28;20417;-37
2023/05/05 01:58:35;;;;;;;5.63;3.08;;;12.00;99.90;;;;;;12478167;28;20045;-37
2023/05/05 02:04:42;;;;;;;7.47;3.20;;;12.10;99.90;;;;;;12491558;28;20060;-37
2023/05/05 02:10:46;;;;;;;5.57;3.33;;;12.40;99.90;;;;;;12481117;28;20052;-37
2023/05/05 02:16:50;;;;;;;8.98;3.22;;;12.30;99.90;;;;;;12464134;28;20048;-37
2023/05/05 02:22:52;;;;;;;8.40;3.43;;;12.10;99.90;;;;;;12470885;28;20034;-36
2023/05/05 02:29:06;;;;;;;5.53;3.10;;;12.20;99.90;;;;;;12475435;28;20593;-36
2023/05/05 02:35:18;;;;;;;6.53;3.53;;;11.90;99.90;;;;;;12466250;28;20157;-37
2023/05/05 02:41:22;;;;;;;10.60;3.53;;;12.00;99.90;;;;;;12474431;28;20072;-37
2023/05/05 02:47:37;;;;;;;6.40;2.90;;;11.80;99.90;;;;;;12469306;28;20367;-37
2023/05/05 02:53:39;;;;;;;8.20;3.35;;;11.60;99.90;;;;;;12478632;28;20045;-36
2023/05/05 02:59:47;;;;;;;8.13;3.75;;;11.70;99.90;;;;;;12486818;28;20481;-37
2023/05/05 03:06:06;;;;;;;10.45;3.10;;;11.80;99.90;;;;;;12493546;28;20049;-37
2023/05/05 03:12:12;;;;;;;7.55;3.20;;;11.40;99.90;;;;;;12465337;28;20045;-36
2023/05/05 03:18:17;;;;;;;11.10;3.28;;;11.70;99.90;;;;;;12457358;28;20045;-37
2023/05/05 03:24:20;;;;;;;7.18;2.78;;;11.60;99.90;;;;;;12460129;28;20049;-36
2023/05/05 03:30:21;;;;;;;8.85;2.85;;;11.70;99.90;;;;;;12470959;28;20547;-37
2023/05/05 03:36:23;;;;;;;5.93;3.10;;;11.80;99.90;;;;;;12479382;28;20049;-37
2023/05/05 03:42:27;;;;;;;6.45;2.83;;;11.70;99.90;;;;;;12460724;28;20485;-37
2023/05/05 03:48:29;;;;;;;8.18;3.00;;;11.90;99.90;;;;;;12477109;28;20696;-37
2023/05/05 03:54:31;;;;;;;6.90;3.20;;;11.80;99.90;;;;;;12490907;28;20049;-38
2023/05/05 04:00:33;;;;;;;8.93;3.00;;;11.50;99.90;;;;;;12485205;28;20057;-37
2023/05/05 04:06:35;;;;;;;5.13;2.75;;;11.60;99.90;;;;;;12483697;28;20413;-37
2023/05/05 04:12:37;;;;;;;6.85;2.70;;;11.80;99.90;;;;;;12452977;28;20045;-37
2023/05/05 04:18:39;;;;;;;7.28;2.80;;;11.90;99.90;;;;;;12458595;28;20058;-37
2023/05/05 04:24:41;;;;;;;10.88;2.78;;;12.30;99.90;;;;;;12482207;28;20046;-37
2023/05/05 04:30:42;;;;;;;7.25;2.63;;;12.00;99.90;;;;;;12494617;28;20056;-37
2023/05/05 04:36:44;;;;;;;4.95;2.65;;;11.80;99.90;;;;;;12487781;28;20049;-36
2023/05/05 04:42:46;;;;;;;9.50;2.85;;;12.00;99.90;;;;;;12483976;28;20056;-37
2023/05/05 04:48:48;;;;;;;6.00;3.20;;;12.00;99.90;;;;;;12479599;28;20405;-37
2023/05/05 04:54:50;;;;;;;5.80;3.33;;;11.80;99.90;;;;;;12488288;28;20192;-37
2023/05/05 05:00:51;;;;;;;10.38;4.63;;;11.60;99.90;;;;;;12484921;28;20422;-37
2023/05/05 05:06:53;;;;;;;7.32;2.88;;;11.80;99.90;;;;;;12473011;28;20057;-37
2023/05/05 05:12:59;;;;;;;5.95;3.50;;;12.70;99.90;;;;;;12479817;28;20045;-36
2023/05/05 05:19:00;;;;;;;8.88;3.65;;;13.90;99.90;;;;;;12468790;28;20077;-36
2023/05/05 05:25:03;;;;;;;8.27;3.80;;;15.30;99.90;;;;;;12477522;28;20044;-37
2023/05/05 05:31:05;;;;;;;8.40;2.88;;;15.30;99.90;;;;;;12492083;28;20079;-36
2023/05/05 05:37:07;;;;;;;5.63;3.10;;;15.10;99.90;;;;;;12472554;28;20053;-37
2023/05/05 05:43:09;;;;;;;4.80;2.65;;;16.90;99.90;;;;;;12487892;28;20753;-37
2023/05/05 05:49:11;;;;;;;3.90;2.70;;;16.80;99.90;;;;;;12480861;28;20041;-37
2023/05/05 05:55:13;;;;;;;6.63;3.40;;;16.10;99.90;;;;;;12490651;28;20049;-37
2023/05/05 06:01:14;;;;;;;5.15;2.78;;;15.00;99.90;;;;;;12496094;28;20049;-37
2023/05/05 06:07:17;;;;;;;6.78;3.63;;;14.60;99.90;;;;;;12491453;28;21686;-37
2023/05/05 06:13:19;;;;;;;6.35;3.63;;;14.30;99.90;;;;;;12480639;28;20041;-37
2023/05/05 06:19:20;;;;;;;8.48;3.42;;;14.10;99.90;;;;;;12476470;28;20053;-37
2023/05/05 06:25:22;;;;;;;6.82;3.50;;;13.80;99.90;;;;;;12482340;28;20041;-37
2023/05/05 06:31:26;;;;;;;10.13;3.80;;;13.80;99.90;;;;;;12469954;28;20095;-37
2023/05/05 06:37:28;;;;;;;5.80;3.08;;;13.70;99.90;;;;;;12493576;28;20060;-37
2023/05/05 06:43:30;;;;;;;9.18;4.40;;;14.00;99.90;;;;;;12499409;28;20049;-37
2023/05/05 06:49:32;;;;;;;9.38;3.63;;;14.60;99.90;;;;;;12488461;28;20069;-37
2023/05/05 06:55:34;;;;;;;6.65;3.03;;;14.80;99.90;;;;;;12461642;28;20098;-37
2023/05/05 07:01:36;;;;;;;6.78;4.10;;;15.50;99.90;;;;;;12481362;28;20509;-37
2023/05/05 07:07:48;;;;;;;10.90;4.18;;;15.50;99.90;;;;;;12487268;28;20068;-37
2023/05/05 07:13:50;;;;;;;10.63;4.97;;;14.60;99.90;;;;;;12465106;28;20448;-37
2023/05/05 07:19:53;;;;;;;12.15;6.13;;;14.00;99.90;;;;;;12468832;28;20041;-37
2023/05/05 07:25:55;;;;;;;10.77;7.10;;;13.20;99.90;;;;;;12474407;28;20129;-36
2023/05/05 07:31:57;;;;;;;12.77;8.20;;;13.10;99.90;;;;;;12478688;28;20049;-36
2023/05/05 07:37:59;;;;;;;12.15;7.97;;;12.80;99.90;;;;;;12480748;28;20041;-37
2023/05/05 07:44:01;;;;;;;12.93;8.18;;;12.80;99.90;;;;;;12484192;28;20083;-37
2023/05/05 07:50:03;;;;;;;11.60;6.70;;;12.60;99.90;;;;;;12497087;28;20047;-37
2023/05/05 07:56:06;;;;;;;13.90;8.07;;;12.70;99.90;;;;;;12499908;28;20541;-37
2023/05/05 08:02:14;;;;;;;16.60;9.55;;;12.70;99.90;;;;;;12488339;28;20049;-36
2023/05/05 08:08:16;;;;;;;13.32;9.25;;;12.60;99.90;;;;;;12474801;28;20567;-37
2023/05/05 08:14:18;;;;;;;15.23;9.80;;;12.60;99.90;;;;;;12495599;28;20037;-37
2023/05/05 08:20:20;;;;;;;16.40;9.07;;;12.70;99.90;;;;;;12480327;28;20042;-37
2023/05/05 08:26:22;;;;;;;14.15;9.02;;;12.70;99.90;;;;;;12497613;28;20061;-37
2023/05/05 08:32:26;;;;;;;12.55;8.60;;;12.70;99.90;;;;;;12499349;28;20052;-39
2023/05/05 08:38:31;;;;;;;14.52;8.73;;;13.00;99.90;;;;;;12483726;28;20064;-38
2023/05/05 08:44:32;;;;;;;10.82;7.15;;;13.50;99.90;;;;;;12486331;28;20188;-37
2023/05/05 08:50:37;;;;;;;14.52;7.40;;;13.90;99.90;;;;;;12494846;28;20383;-37
2023/05/05 08:56:40;;;;;;;10.18;6.55;;;14.60;99.90;;;;;;12472077;28;20421;-38
2023/05/05 09:02:43;;;;;;;14.30;7.57;;;14.50;99.90;;;;;;12489297;28;20142;-37
2023/05/05 09:08:45;;;;;;;15.52;8.10;;;14.70;99.90;;;;;;12494805;28;20060;-38
2023/05/05 09:14:47;;;;;;;12.27;8.30;;;14.70;99.90;;;;;;12479051;28;20037;-38
2023/05/05 09:20:49;;;;;;;13.45;8.77;;;15.10;99.90;;;;;;12491771;28;20108;-39
2023/05/05 09:26:54;;;;;;;9.55;7.47;;;16.00;99.90;;;;;;12490300;28;20501;-39
2023/05/05 09:32:59;;;;;;;14.60;8.90;;;17.00;99.90;;;;;;12491497;28;20049;-38
2023/05/05 09:39:05;;;;;;;14.77;9.10;;;17.20;99.90;;;;;;12498597;28;20045;-37
2023/05/05 09:45:27;;;;;;;10.15;7.65;;;16.80;99.90;;;;;;12477473;28;20048;-37
2023/05/05 09:51:30;;;;;;;11.93;8.48;;;17.70;99.90;;;;;;12482269;28;20045;-37
2023/05/05 09:57:32;;;;;;;14.20;8.80;;;17.70;99.90;;;;;;12472130;28;20446;-37
2023/05/05 10:03:50;;;;;;;12.10;8.75;;;17.30;99.90;;;;;;12482860;28;20094;-36
2023/05/05 10:09:52;;;;;;;9.38;7.28;;;17.70;99.90;;;;;;12437297;28;20042;-36
2023/05/05 10:15:55;;;;;;;13.52;9.13;;;18.20;99.90;;;;;;12433072;28;20099;-37
2023/05/05 10:22:02;;;;;;;10.80;8.55;;;18.10;99.90;;;;;;12431329;28;20068;-36
2023/05/05 10:28:08;;;;;;;10.90;8.43;;;19.10;99.90;;;;;;12429758;28;20057;-37
2023/05/05 10:34:19;;;;;;;13.35;10.13;;;19.50;99.90;;;;;;12436386;28;20080;-37
2023/05/05 10:40:23;;;;;;;16.40;12.00;;;19.60;99.90;;;;;;12431980;28;20046;-37
2023/05/05 10:46:27;;;;;;;19.17;12.63;;;19.70;99.90;;;;;;12436912;28;20081;-36
2023/05/05 10:53:02;;;;;;;16.00;11.15;;;18.80;99.90;;;;;;12447569;28;20061;-38
2023/05/05 10:59:35;;;;;;;16.33;11.70;;;20.00;99.90;;;;;;12439691;28;20053;-37
2023/05/05 11:06:03;;;;;;;18.58;13.55;;;20.50;99.90;;;;;;12446402;28;20383;-38
2023/05/05 11:12:05;;;;;;;18.15;14.45;;;20.30;99.90;;;;;;12471992;28;20049;-38
2023/05/05 11:18:36;;;;;;;16.88;12.95;;;20.60;99.90;;;;;;12477288;28;20048;-38
2023/05/05 11:24:41;;;;;;;15.77;11.93;;;20.70;99.90;;;;;;12485626;28;20119;-39
2023/05/05 11:31:14;;;;;;;17.70;13.65;;;20.70;99.90;;;;;;12469642;28;20042;-37
2023/05/05 11:37:16;;;;;;;15.40;13.15;;;21.10;99.90;;;;;;12504527;28;20413;-37
2023/05/05 11:43:18;;;;;;;14.15;11.88;;;21.30;99.90;;;;;;12509856;28;20056;-37
2023/05/05 11:49:27;;;;;;;15.98;12.95;;;21.10;99.90;;;;;;12487592;28;20045;-38
2023/05/05 11:55:29;;;;;;;14.85;12.35;;;21.10;99.90;;;;;;12488299;28;20136;-38
2023/05/05 12:01:32;;;;;;;20.58;13.27;;;21.70;99.90;;;;;;12489524;28;20459;-37
2023/05/05 12:07:34;;;;;;;16.02;12.52;;;21.50;99.90;;;;;;12466129;28;20571;-38
2023/05/05 12:13:36;;;;;;;14.15;9.75;;;21.20;99.90;;;;;;12408426;28;20054;-37
2023/05/05 12:19:45;;;;;;;10.43;7.50;;;21.10;99.90;;;;;;12389560;28;20081;-38
2023/05/05 12:25:46;;;;;;;13.82;10.00;;;21.00;99.90;;;;;;12425771;28;20046;-38
2023/05/05 12:31:48;;;;;;;11.43;9.18;;;21.20;99.90;;;;;;12425287;28;20057;-37
2023/05/05 12:37:50;;;;;;;14.43;12.20;;;21.90;99.90;;;;;;12447269;28;20128;-38
2023/05/05 12:43:56;;;;;;;15.05;11.13;;;21.00;99.90;;;;;;12440758;28;20053;-37
2023/05/05 12:49:59;;;;;;;12.88;11.18;;;21.10;99.90;;;;;;12447008;28;20054;-38
2023/05/05 12:56:01;;;;;;;13.48;9.52;;;20.60;99.90;;;;;;12433625;28;20042;-37
2023/05/05 13:02:03;;;;;;;13.80;11.17;;;21.10;99.90;;;;;;12434940;28;20320;-37
2023/05/05 13:08:05;;;;;;;13.77;11.40;;;21.00;99.90;;;;;;12432776;28;20422;-38
2023/05/05 13:14:07;;;;;;;17.15;13.40;;;20.60;99.90;;;;;;12436132;28;20054;-37
2023/05/05 13:20:10;;;;;;;16.33;13.43;;;20.00;99.90;;;;;;12421890;28;20050;-38
2023/05/05 13:26:12;;;;;;;18.10;12.95;;;19.90;99.90;;;;;;12441604;28;20048;-37
2023/05/05 13:32:14;;;;;;;16.85;13.73;;;19.80;99.90;;;;;;12430921;28;20467;-38
2023/05/05 13:38:16;;;;;;;15.93;13.57;;;19.60;99.90;;;;;;12404823;28;20042;-37
2023/05/05 13:44:18;;;;;;;17.85;13.20;;;19.30;99.90;;;;;;12443838;28;20140;-37
2023/05/05 13:50:19;;;;;;;18.20;13.63;;;19.30;99.90;;;;;;12430250;28;20091;-37
2023/05/05 13:56:24;;;;;;;15.50;12.73;;;19.30;99.90;;;;;;12430570;28;20042;-37
2023/05/05 14:02:28;;;;;;;14.65;12.10;;;19.20;99.90;;;;;;12447903;28;20054;-37
2023/05/05 14:08:29;;;;;;;17.00;12.70;;;19.10;99.90;;;;;;12437147;28;20066;-37
2023/05/05 14:14:31;;;;;;;13.40;10.77;;;19.10;99.90;;;;;;12403030;28;20384;-36
2023/05/05 14:20:33;;;;;;;12.52;10.25;;;19.10;99.90;;;;;;12418777;28;20046;-36
2023/05/05 14:26:35;;;;;;;14.27;10.65;;;19.20;99.90;;;;;;12435710;28;20069;-36
2023/05/05 14:32:37;;;;;;;13.80;11.23;;;19.00;99.90;;;;;;12430737;28;20046;-36
2023/05/05 14:38:39;;;;;;;17.65;10.90;;;18.90;99.90;;;;;;12435625;28;20782;-36
2023/05/05 14:44:41;;;;;;;16.77;11.23;;;18.80;99.90;;;;;;12421878;28;20073;-37
2023/05/05 14:50:45;;;;;;;19.80;10.65;;;18.70;99.90;;;;;;12431032;28;20056;-36
2023/05/05 14:56:46;;;;;;;17.90;13.05;;;18.50;99.90;;;;;;12405263;28;20050;-37
2023/05/05 15:02:48;;;;;;;19.23;14.20;;;18.30;99.90;;;;;;12446936;28;20109;-39
2023/05/05 15:08:50;;;;;;;17.80;11.15;;;18.00;99.90;;;;;;12434627;28;20054;-40
2023/05/05 15:14:54;;;;;;;23.85;6.72;;;16.70;99.90;;;;;;12421562;28;20505;-37
2023/05/05 15:20:56;;;;;;;11.93;6.10;;;14.30;99.90;;;;;;12434570;28;20052;-38
2023/05/05 15:26:58;;;;;;;7.13;3.25;;;14.10;99.90;;;;;;12417462;28;20285;-37
2023/05/05 15:33:01;;;;;;;6.63;3.40;;;13.50;99.90;;;;;;12445314;28;20050;-37
2023/05/05 15:39:03;;;;;;;6.43;3.30;;;13.60;99.90;;;;;;12429965;28;20050;-37
2023/05/05 15:45:06;;;;;;;9.13;3.40;;;13.90;99.90;;;;;;12422041;28;20037;-37
2023/05/05 15:51:11;;;;;;;6.93;3.50;;;13.90;99.90;;;;;;12417035;28;20062;-37
2023/05/05 15:57:13;;;;;;;6.93;3.67;;;13.90;99.90;;;;;;12415097;28;20089;-38
2023/05/05 16:03:15;;;;;;;4.90;3.10;;;13.90;99.90;;;;;;12415455;28;20544;-38
2023/05/05 16:09:17;;;;;;;5.03;3.08;;;14.00;99.90;;;;;;12475171;28;20049;-38
2023/05/05 16:15:18;;;;;;;4.18;2.50;;;14.10;99.90;;;;;;12489880;28;20501;-37
2023/05/05 16:21:20;;;;;;;7.65;3.30;;;14.00;99.90;;;;;;12488410;28;20179;-37
2023/05/05 16:27:23;;;;;;;5.45;2.42;;;14.20;99.90;;;;;;12507673;28;20042;-37
2023/05/05 16:33:25;;;;;;;3.40;1.90;;;14.30;99.90;;;;;;12495458;28;20045;-38
2023/05/05 16:39:26;;;;;;;4.90;2.30;;;14.20;99.90;;;;;;12494624;28;20136;-36
2023/05/05 16:45:29;;;;;;;6.93;2.25;;;14.10;99.90;;;;;;12493555;28;20069;-36
2023/05/05 16:51:31;;;;;;;4.47;2.13;;;14.00;99.90;;;;;;12501607;28;20184;-36
2023/05/05 16:57:32;;;;;;;5.07;1.92;;;14.20;99.90;;;;;;12490842;28;20132;-37
2023/05/05 17:03:34;;;;;;;2.65;1.65;;;14.10;99.90;;;;;;12485599;28;20051;-36
2023/05/05 17:09:36;;;;;;;3.97;2.13;;;14.10;99.90;;;;;;12488603;28;20057;-36
2023/05/05 17:15:39;;;;;;;3.67;1.70;;;14.20;99.90;;;;;;12501361;28;20574;-36
2023/05/05 17:21:44;;;;;;;3.85;1.67;;;14.30;99.90;;;;;;12490426;28;20072;-37
2023/05/05 17:27:46;;;;;;;12.25;3.65;;;14.40;99.90;;;;;;12495154;28;20486;-37
2023/05/05 17:33:48;;;;;;;3.38;1.60;;;14.40;99.90;;;;;;12491004;28;20049;-37
2023/05/05 17:39:50;;;;;;;3.38;1.45;;;13.90;99.90;;;;;;12491279;28;20452;-36
2023/05/05 17:45:52;;;;;;;2.85;1.60;;;14.10;99.90;;;;;;12487489;28;20110;-36
2023/05/05 17:51:53;;;;;;;5.03;2.00;;;14.10;99.90;;;;;;12496863;28;20049;-37
2023/05/05 17:57:57;;;;;;;3.78;1.80;;;14.00;99.90;;;;;;12491577;28;20140;-37
2023/05/05 18:03:59;;;;;;;6.97;2.10;;;14.10;99.90;;;;;;12480435;28;20056;-36
2023/05/05 18:10:01;;;;;;;3.30;2.00;;;13.90;99.90;;;;;;12486080;28;20413;-37
2023/05/05 18:16:04;;;;;;;3.78;1.90;;;13.80;99.90;;;;;;12486253;28;20045;-36
2023/05/05 18:22:06;;;;;;;5.80;2.40;;;13.90;99.90;;;;;;12492774;28;20047;-37
2023/05/05 18:28:08;;;;;;;5.88;2.45;;;13.80;99.90;;;;;;12482241;28;20168;-37
2023/05/05 18:34:09;;;;;;;5.50;2.35;;;13.70;99.90;;;;;;12463567;28;20041;-37
2023/05/05 18:40:13;;;;;;;6.45;2.50;;;13.60;99.90;;;;;;12484437;28;20072;-37
2023/05/05 18:46:15;;;;;;;7.43;3.00;;;13.50;99.90;;;;;;12500888;28;20461;-37
2023/05/05 18:52:16;;;;;;;4.18;3.00;;;13.40;99.90;;;;;;12492814;28;20049;-39
2023/05/05 18:58:18;;;;;;;7.70;3.20;;;13.40;99.90;;;;;;12503830;28;20049;-37
2023/05/05 19:04:20;;;;;;;9.18;3.65;;;13.30;99.90;;;;;;12471725;28;20402;-37
2023/05/05 19:10:32;;;;;;;5.95;4.00;;;13.10;99.90;;;;;;12490453;28;20061;-37
2023/05/05 19:16:34;;;;;;;6.82;3.88;;;13.10;99.90;;;;;;12492636;28;20104;-37
2023/05/05 19:22:36;;;;;;;6.35;4.13;;;13.20;99.90;;;;;;12497861;28;20156;-38
2023/05/05 19:28:38;;;;;;;4.75;3.30;;;13.20;99.90;;;;;;12453611;28;20046;-37
2023/05/05 19:34:41;;;;;;;8.02;3.60;;;13.30;99.90;;;;;;12486842;28;20128;-37
2023/05/05 19:40:43;;;;;;;5.60;3.72;;;13.20;99.90;;;;;;12478286;28;20171;-37
2023/05/05 19:46:45;;;;;;;7.68;3.90;;;13.00;99.90;;;;;;12490080;28;20413;-37
2023/05/05 19:52:46;;;;;;;8.38;4.22;;;13.10;99.90;;;;;;12503167;28;20426;-38
2023/05/05 19:58:57;;;;;;;5.57;4.15;;;13.10;99.90;;;;;;12502236;28;20497;-37
2023/05/05 20:04:59;;;;;;;7.10;4.50;;;13.10;99.90;;;;;;12489902;28;20056;-37
2023/05/05 20:11:03;;;;;;;8.35;4.50;;;13.00;99.90;;;;;;12501872;28;20076;-37
2023/05/05 20:17:05;;;;;;;4.75;4.03;;;13.10;99.90;;;;;;12479146;28;20045;-37
2023/05/05 20:23:07;;;;;;;5.32;3.45;;;13.10;99.90;;;;;;12500094;28;20055;-37
2023/05/05 20:29:09;;;;;;;10.77;4.30;;;13.00;99.90;;;;;;12496772;28;20057;-37
2023/05/05 20:35:11;;;;;;;5.43;4.53;;;13.20;99.90;;;;;;12481045;28;20056;-38
2023/05/05 20:41:13;;;;;;;9.88;7.68;;;13.20;99.90;;;;;;12495768;28;20129;-37
2023/05/05 20:47:15;;;;;;;8.68;7.47;;;13.10;99.90;;;;;;12471136;28;20053;-37
2023/05/05 20:53:19;;;;;;;9.60;7.13;;;13.10;99.90;;;;;;12491028;28;20077;-37
2023/05/05 20:59:21;;;;;;;7.78;6.53;;;13.10;99.90;;;;;;12494649;28;20052;-37
2023/05/05 21:05:24;;;;;;;7.40;6.57;;;12.90;99.90;;;;;;12488690;28;20489;-37
2023/05/05 21:11:26;;;;;;;11.23;7.88;;;12.70;99.90;;;;;;12518481;28;20041;-38
2023/05/05 21:17:28;;;;;;;10.57;8.15;;;12.50;99.90;;;;;;12459894;28;20053;-36
2023/05/05 21:23:30;;;;;;;12.57;10.30;;;12.20;99.90;;;;;;12495156;28;20087;-37
2023/05/05 21:29:36;;;;;;;13.63;12.15;;;12.20;99.90;;;;;;12513811;28;20353;-36
2023/05/05 21:35:38;;;;;;;15.88;12.02;;;12.30;99.90;;;;;;12501736;28;20179;-37
2023/05/05 21:41:40;;;;;;;16.33;13.13;;;12.30;99.90;;;;;;12520722;28;20050;-36
2023/05/05 21:47:42;;;;;;;16.88;13.45;;;12.20;99.90;;;;;;12514482;28;20530;-36
2023/05/05 21:53:43;;;;;;;15.80;12.90;;;12.20;99.90;;;;;;12490973;28;20094;-37
2023/05/05 21:59:45;;;;;;;18.25;13.73;;;12.10;99.90;;;;;;12503295;28;20045;-36
2023/05/05 22:05:47;;;;;;;18.45;14.55;;;12.20;99.90;;;;;;12489216;28;20045;-37
2023/05/05 22:11:50;;;;;;;19.35;15.10;;;12.10;99.90;;;;;;12501469;28;20055;-37
2023/05/05 22:17:51;;;;;;;20.08;14.65;;;12.00;99.90;;;;;;12477256;28;20389;-37
2023/05/05 22:23:53;;;;;;;19.23;15.18;;;12.10;99.90;;;;;;12461330;28;20038;-36
2023/05/05 22:29:55;;;;;;;18.95;15.45;;;12.00;99.90;;;;;;12470730;28;20057;-37
2023/05/05 22:35:57;;;;;;;20.90;15.35;;;12.00;99.90;;;;;;12484072;28;20041;-37
2023/05/05 22:41:59;;;;;;;18.33;15.25;;;12.10;99.90;;;;;;12478267;28;20037;-37
2023/05/05 22:48:01;;;;;;;21.15;15.75;;;12.10;99.90;;;;;;12497223;28;20054;-37
2023/05/05 22:54:03;;;;;;;17.92;15.40;;;12.10;99.90;;;;;;12482406;28;20046;-37
2023/05/05 23:00:07;;;;;;;18.48;14.52;;;12.20;99.90;;;;;;12471995;28;20501;-37
2023/05/05 23:06:09;;;;;;;18.95;15.23;;;12.10;99.90;;;;;;12412443;28;20046;-37
2023/05/05 23:12:11;;;;;;;20.55;16.05;;;12.00;99.90;;;;;;12431984;28;20053;-36
2023/05/05 23:18:13;;;;;;;18.65;15.32;;;12.00;99.90;;;;;;12422784;28;20057;-37
2023/05/05 23:24:14;;;;;;;20.35;15.95;;;11.90;99.90;;;;;;12446424;28;20042;-37
2023/05/05 23:30:19;;;;;;;20.83;16.55;;;11.90;99.90;;;;;;12427864;28;20509;-36
2023/05/05 23:36:20;;;;;;;21.17;15.32;;;12.00;99.90;;;;;;12429947;28;20053;-44
2023/05/05 23:42:23;;;;;;;19.05;16.13;;;12.00;99.90;;;;;;12433588;28;20050;-37
2023/05/05 23:48:25;;;;;;;19.73;15.52;;;12.00;99.90;;;;;;12418768;28;20206;-38
2023/05/05 23:54:27;;;;;;;21.15;16.15;;;11.90;99.90;;;;;;12427947;28;20077;-37
